Latest Weather Observations for Renmark Airport

IDS60801

Issued at 8:42 pm CDT Saturday 22 February 2020 (issued every 10 minutes, with the page automatically refreshed every 10 minutes)

About weather observations | Map of weather stations | Latest weather observations for SA | Other Formats
Station Details ID: 024048 Name: RENMARK AERO Lat: -34.20 Lon: 140.68 Height: 31.5 m
Data from the previous 72 hours. | See also: Recent months at Renmark Airport
Date/Time
CDT
Temp
°C
App
Temp
°C
Dew
Point
°C
Rel
Hum
%
Delta-T
°C
Wind Press
QNH
hPa
Press
MSL
hPa
Rain since
9am
mm
Dir  Spd
km/h
Gust
km/h
Spd
kts
Gust
kts
22/08:30pm 24.2 20.8 1.8 23 10.6 SSW 9 11 5 6 1017.1 1016.9 0.0
22/08:00pm 25.8 22.3 1.2 20 11.7 SSW 9 13 5 7 1017.0 1016.8 0.0
22/07:30pm 27.4 23.1 1.0 18 12.6 S 13 20 7 11 1016.7 1016.5 0.0
22/07:00pm 28.0 22.8 -0.1 16 13.2 S 17 24 9 13 1016.6 1016.4 0.0
22/06:30pm 28.3 23.1 0.1 16 13.3 S 17 22 9 12 1016.5 1016.3 0.0
22/06:00pm 28.5 23.5 1.1 17 13.2 S 17 28 9 15 1016.5 1016.3 0.0
22/05:30pm 28.8 23.8 1.3 17 13.3 S 17 24 9 13 1016.7 1016.5 0.0
22/05:00pm 28.2 23.9 0.9 17 13.1 S 13 22 7 12 1017.2 1017.0 0.0
22/04:30pm 27.8 23.3 2.1 19 12.5 SSW 15 24 8 13 1017.6 1017.4 0.0
22/04:00pm 27.5 23.1 2.6 20 12.2 S 15 24 8 13 1018.2 1018.0 0.0
22/03:30pm 27.7 24.3 4.1 22 11.9 S 11 19 6 10 1018.8 1018.6 0.0
22/03:00pm 26.7 22.3 4.5 24 11.2 S 17 28 9 15 1019.4 1019.2 0.0
22/02:30pm 26.5 22.1 4.9 25 11.0 S 17 30 9 16 1019.7 1019.5 0.0
22/02:00pm 25.9 21.4 6.0 28 10.3 S 19 33 10 18 1020.0 1019.8 0.0
22/01:30pm 26.0 21.9 6.1 28 10.3 S 17 24 9 13 1020.6 1020.4 0.0
22/01:00pm 24.9 20.8 6.1 30 9.7 SSE 17 30 9 16 1020.9 1020.7 0.0
22/12:30pm 24.8 20.3 6.1 30 9.6 SSE 19 28 10 15 1021.2 1021.0 0.0
22/12:00pm 22.8 19.4 5.7 33 8.6 SE 13 22 7 12 1021.7 1021.5 0.0
22/11:30am 22.7 19.4 6.5 35 8.3 SE 13 22 7 12 1022.1 1021.9 0.0
22/11:00am 21.3 18.0 6.4 38 7.5 E 13 22 7 12 1022.3 1022.1 0.0
22/10:30am 20.2 16.1 6.2 40 7.0 ESE 17 22 9 12 1022.4 1022.2 0.0
22/10:00am 18.6 14.9 6.1 44 6.2 ESE 15 20 8 11 1022.4 1022.2 0.0
22/09:30am 17.3 13.2 6.2 48 5.4 ESE 17 22 9 12 1022.4 1022.2 0.0
22/09:00am 16.7 12.6 6.2 50 5.1 ESE 17 20 9 11 1022.2 1022.0 0.0
22/08:30am 15.5 11.0 6.2 54 4.5 SE 19 26 10 14 1021.9 1021.7 0.0
22/08:00am 14.7 10.2 6.3 57 4.1 SE 19 24 10 13 1021.6 1021.4 0.0
22/07:30am 13.8 10.9 6.4 61 3.5 SSE 11 17 6 9 1021.4 1021.2 0.0
22/07:00am 12.8 10.2 6.2 64 3.1 SSE 9 11 5 6 1021.2 1021.0 0.0
22/06:30am 12.9 9.9 5.8 62 3.3 SSE 11 13 6 7 1020.8 1020.6 0.0
22/06:00am 13.5 10.5 5.9 60 3.6 SSE 11 15 6 8 1020.7 1020.5 0.0
22/05:30am 13.7 10.7 5.8 59 3.7 SSE 11 13 6 7 1020.6 1020.4 0.0
22/05:00am 14.0 11.0 5.9 58 3.9 SSE 11 13 6 7 1020.4 1020.2 0.0
22/04:30am 14.5 11.1 5.8 56 4.1 SSE 13 15 7 8 1020.3 1020.1 0.0
22/04:00am 15.1 11.4 6.1 55 4.3 SSE 15 20 8 11 1020.1 1019.9 0.0
22/03:30am 15.5 11.8 6.5 55 4.4 SSE 15 19 8 10 1020.0 1019.8 0.0
22/03:00am 16.1 12.6 7.1 55 4.4 SSE 15 19 8 10 1020.0 1019.8 0.0
22/02:30am 16.6 12.9 7.8 56 4.4 SSE 17 24 9 13 1019.9 1019.7 0.0
22/02:00am 16.7 13.2 8.7 59 4.1 S 17 22 9 12 1019.9 1019.7 0.0
22/01:30am 16.7 13.4 9.4 62 3.8 S 17 24 9 13 1020.0 1019.8 0.0
22/01:00am 17.1 13.8 9.5 61 4.0 SSW 17 20 9 11 1020.0 1019.8 0.0
22/12:30am 17.5 13.9 9.7 60 4.1 SSW 19 24 10 13 1020.0 1019.8 0.0
22/12:00am 17.9 14.2 9.5 58 4.4 SSW 19 30 10 16 1020.0 1019.8 0.0
 
Date/Time
CDT
Temp
°C
App
Temp
°C
Dew
Point
°C
Rel
Hum
%
Delta-T
°C
Wind Press
QNH
hPa
Press
MSL
hPa
Rain since
9am
mm
Dir  Spd
km/h
Gust
km/h
Spd
kts
Gust
kts
21/11:30pm 18.7 14.0 9.2 54 5.0 SSW 24 32 13 17 1019.7 1019.5 0.0
21/11:00pm 19.5 14.8 9.1 51 5.5 SSW 24 35 13 19 1019.4 1019.2 0.0
21/10:30pm 21.1 16.6 7.0 40 7.2 SSW 20 30 11 16 1019.3 1019.1 0.0
21/10:00pm 21.8 17.8 6.5 37 7.8 S 17 20 9 11 1019.1 1018.9 0.0
21/09:30pm 22.2 18.2 6.8 37 7.9 SSW 17 24 9 13 1018.7 1018.5 0.0
21/09:00pm 22.6 18.6 6.8 36 8.1 SSW 17 22 9 12 1018.3 1018.1 0.0
21/08:30pm 23.3 19.4 7.0 35 8.4 S 17 20 9 11 1017.9 1017.7 0.0
21/08:00pm 24.0 20.4 6.7 33 9.0 S 15 20 8 11 1017.6 1017.4 0.0
21/07:30pm 24.9 20.3 6.6 31 9.5 S 20 30 11 16 1017.2 1017.0 0.0
21/07:00pm 25.6 20.3 6.8 30 9.8 S 24 32 13 17 1017.0 1016.8 0.0
21/06:30pm 26.3 20.4 5.8 27 10.6 S 26 35 14 19 1016.8 1016.6 0.0
21/06:00pm 26.5 21.3 5.5 26 10.8 SSE 22 30 12 16 1016.6 1016.4 0.0
21/05:30pm 26.3 21.7 5.8 27 10.6 SSE 19 30 10 16 1016.6 1016.4 0.0
21/05:00pm 26.6 22.0 5.5 26 10.9 SSE 19 32 10 17 1016.5 1016.3 0.0
21/04:30pm 25.6 20.8 5.8 28 10.2 S 20 33 11 18 1016.7 1016.5 0.0
21/04:00pm 25.8 21.3 5.9 28 10.3 SSE 19 30 10 16 1017.0 1016.8 0.0
21/03:30pm 25.4 20.6 5.6 28 10.1 SSE 20 37 11 20 1017.5 1017.3 0.0
21/03:00pm 24.5 19.6 5.3 29 9.7 S 20 33 11 18 1018.0 1017.8 0.0
21/02:30pm 24.1 19.9 5.9 31 9.3 SSE 17 30 9 16 1018.4 1018.2 0.0
21/02:00pm 24.2 19.7 6.9 33 9.0 SSW 20 30 11 16 1018.8 1018.6 0.0
21/01:30pm 22.0 17.7 7.0 38 7.7 S 19 33 10 18 1019.4 1019.2 0.0
21/01:00pm 21.4 17.2 7.3 40 7.3 S 19 32 10 17 1019.8 1019.6 0.0
21/12:30pm 20.9 16.7 7.5 42 6.9 S 19 32 10 17 1020.1 1019.9 0.0
21/12:00pm 20.5 16.3 7.5 43 6.7 S 19 28 10 15 1020.5 1020.3 0.0
21/11:30am 19.6 15.2 7.4 45 6.2 SSE 20 28 11 15 1020.8 1020.6 0.0
21/11:00am 18.7 14.6 7.8 49 5.6 S 19 24 10 13 1020.9 1020.7 0.0
21/10:30am 18.1 14.0 7.8 51 5.2 SE 19 26 10 14 1020.9 1020.7 0.0
21/10:00am 17.4 13.7 8.0 54 4.8 SSE 17 22 9 12 1020.8 1020.6 0.0
21/09:30am 16.7 13.1 8.4 58 4.2 SE 17 22 9 12 1020.7 1020.5 0.0
21/09:00am 15.6 12.0 8.4 62 3.6 SE 17 22 9 12 1020.5 1020.3 0.0
21/08:30am 14.4 10.4 8.4 67 3.0 SSE 19 26 10 14 1020.5 1020.3 0.0
21/08:00am 13.7 9.5 8.3 70 2.7 SSE 20 28 11 15 1020.0 1019.8 0.0
21/07:30am 13.2 9.5 8.1 71 2.5 S 17 24 9 13 1019.7 1019.5 0.0
21/07:00am 12.7 9.8 8.0 73 2.3 S 13 19 7 10 1019.2 1019.0 0.0
21/06:30am 12.6 9.6 7.7 72 2.4 S 13 17 7 9 1018.6 1018.4 0.0
21/06:00am 12.8 9.8 7.7 71 2.5 S 13 17 7 9 1018.5 1018.3 0.0
21/05:30am 12.9 9.9 7.6 70 2.6 S 13 19 7 10 1018.3 1018.1 0.0
21/05:00am 13.4 10.0 7.6 68 2.8 S 15 22 8 12 1017.9 1017.7 0.0
21/04:30am 13.8 10.0 7.6 66 3.0 S 17 26 9 14 1017.4 1017.2 0.0
21/04:00am 14.0 10.2 7.5 65 3.2 S 17 24 9 13 1017.5 1017.3 0.0
21/03:30am 14.3 10.8 7.4 63 3.4 S 15 22 8 12 1017.5 1017.3 0.0
21/03:00am 14.6 10.4 7.4 62 3.5 S 19 28 10 15 1017.5 1017.3 0.0
21/02:30am 14.9 10.5 7.5 61 3.7 S 20 28 11 15 1017.6 1017.4 0.0
21/02:00am 15.3 10.9 7.3 59 4.0 S 20 28 11 15 1017.7 1017.5 0.0
21/01:30am 15.7 10.9 7.5 58 4.1 S 22 32 12 17 1017.9 1017.7 0.0
21/01:00am 15.9 11.6 7.7 58 4.1 S 20 32 11 17 1018.1 1017.9 0.0
21/12:30am 16.1 11.8 7.8 58 4.2 S 20 30 11 16 1017.9 1017.7 0.0
21/12:00am 16.5 11.1 8.0 57 4.3 SSW 26 39 14 21 1017.6 1017.4 0.0
 
Date/Time
CDT
Temp
°C
App
Temp
°C
Dew
Point
°C
Rel
Hum
%
Delta-T
°C
Wind Press
QNH
hPa
Press
MSL
hPa
Rain since
9am
mm
Dir  Spd
km/h
Gust
km/h
Spd
kts
Gust
kts
20/11:30pm 17.2 11.4 8.1 55 4.6 SSW 28 39 15 21 1017.5 1017.3 0.0
20/11:00pm 18.1 12.3 8.1 52 5.1 SSW 28 39 15 21 1017.3 1017.1 0.0
20/10:30pm 19.9 14.6 7.0 43 6.5 SSW 24 33 13 18 1017.1 1016.9 0.0
20/10:00pm 20.2 15.7 6.9 42 6.7 SSW 20 28 11 15 1016.9 1016.7 0.0
20/09:30pm 20.5 16.8 6.5 40 7.0 SSW 15 19 8 10 1016.7 1016.5 0.0
20/09:00pm 21.1 16.6 6.2 38 7.5 SSW 19 24 10 13 1015.8 1015.6 0.0
20/08:30pm 21.6 17.8 5.9 36 7.9 S 15 22 8 12 1015.1 1015.0 0.0
20/08:00pm 22.6 18.4 5.5 33 8.6 SSW 17 22 9 12 1015.1 1015.0 0.0
20/07:30pm 23.4 18.5 4.9 30 9.2 SSW 20 28 11 15 1014.6 1014.5 0.0
20/07:00pm 24.2 20.0 5.5 30 9.5 S 17 24 9 13 1014.3 1014.2 0.0
20/06:30pm 24.8 20.1 5.1 28 9.9 SSW 19 26 10 14 1014.2 1014.1 0.0
20/06:00pm 24.7 20.0 6.0 30 9.6 S 20 32 11 17 1014.3 1014.2 0.0
20/05:30pm 24.5 20.6 5.3 29 9.7 SW 15 24 8 13 1014.4 1014.3 0.0
20/05:00pm 23.9 19.2 5.3 30 9.4 S 19 28 10 15 1014.7 1014.6 0.0
20/04:30pm 23.7 18.9 4.6 29 9.5 S 19 30 10 16 1014.9 1014.8 0.0
20/04:00pm 24.4 20.7 4.2 27 10.0 S 13 26 7 14 1015.0 1014.9 0.0
20/03:30pm 23.6 19.4 4.0 28 9.6 S 15 26 8 14 1015.1 1015.0 0.0
20/03:00pm 22.5 18.0 4.1 30 9.0 SSW 17 28 9 15 1015.7 1015.5 0.0
20/02:30pm 22.6 18.9 4.2 30 9.0 SE 13 30 7 16 1016.1 1015.9 0.0
20/02:00pm 23.0 18.2 4.5 30 9.1 SSW 19 30 10 16 1016.2 1016.0 0.0
20/01:30pm 21.5 17.1 4.6 33 8.3 S 17 26 9 14 1016.8 1016.6 0.0
20/01:00pm 20.7 15.7 4.7 35 7.8 S 20 32 11 17 1016.8 1016.6 0.0
20/12:30pm 19.7 15.3 5.0 38 7.1 S 17 32 9 17 1017.2 1017.0 0.0
20/12:00pm 19.9 15.6 5.2 38 7.2 S 17 24 9 13 1017.6 1017.4 0.0
20/11:30am 19.4 15.2 5.8 41 6.7 S 17 28 9 15 1018.1 1017.9 0.0
20/11:00am 17.6 13.8 5.9 46 5.7 SSE 15 26 8 14 1018.5 1018.3 0.0
20/10:30am 17.0 12.5 5.9 48 5.4 SSE 19 26 10 14 1018.6 1018.4 0.0
20/10:00am 16.6 11.5 5.9 49 5.2 SE 22 28 12 15 1018.2 1018.0 0.0
20/09:30am 15.9 11.3 5.8 51 4.9 SE 19 26 10 14 1018.1 1017.9 0.0
20/09:00am 15.0 10.4 6.3 56 4.2 SE 20 26 11 14 1018.0 1017.8 0.0
20/08:30am 13.6 9.2 6.5 62 3.4 SSE 19 24 10 13 1017.7 1017.5 0.0
20/08:00am 12.4 8.7 6.2 66 2.9 SSE 15 20 8 11 1017.6 1017.4 0.0
20/07:30am 11.8 8.5 6.3 69 2.6 SSE 13 20 7 11 1017.2 1017.0 0.0
20/07:00am 11.2 8.2 6.1 71 2.4 S 11 17 6 9 1017.1 1016.9 0.0
20/06:30am 11.3 7.6 6.2 71 2.4 S 15 19 8 10 1016.5 1016.3 0.0
20/06:00am 11.5 8.2 6.2 70 2.5 S 13 19 7 10 1016.2 1016.0 0.0
20/05:30am 11.8 8.1 6.3 69 2.6 S 15 19 8 10 1016.1 1015.9 0.0
20/05:00am 12.2 8.5 6.5 68 2.7 S 15 20 8 11 1016.0 1015.8 0.0
20/04:30am 12.5 9.3 6.8 68 2.7 S 13 20 7 11 1015.8 1015.6 0.0
20/04:00am 12.7 9.1 6.7 67 2.9 S 15 20 8 11 1015.3 1015.2 0.0
20/03:30am 13.0 9.8 7.0 67 2.9 S 13 19 7 10 1015.1 1015.0 0.0
20/03:00am 13.4 9.9 7.2 66 3.0 S 15 20 8 11 1015.1 1015.0 0.0
20/02:30am 13.7 10.2 7.2 65 3.2 S 15 19 8 10 1015.2 1015.1 0.0
20/02:00am 14.1 10.3 7.4 64 3.3 S 17 22 9 12 1015.5 1015.3 0.0
20/01:30am 14.5 10.1 7.3 62 3.5 S 20 30 11 16 1015.7 1015.5 0.0
20/01:00am 15.0 10.2 7.3 60 3.8 SSW 22 32 12 17 1015.8 1015.6 0.0
20/12:30am 15.4 10.6 7.4 59 4.0 SSW 22 32 12 17 1016.2 1016.0 0.0
20/12:00am 15.7 10.9 7.5 58 4.1 SSW 22 32 12 17 1016.2 1016.0 0.0
 
Date/Time
CDT
Temp
°C
App
Temp
°C
Dew
Point
°C
Rel
Hum
%
Delta-T
°C
Wind Press
QNH
hPa
Press
MSL
hPa
Rain since
9am
mm
Dir  Spd
km/h
Gust
km/h
Spd
kts
Gust
kts
19/11:30pm 16.3 11.2 7.5 56 4.4 SSW 24 35 13 19 1016.1 1015.9 0.0
19/11:00pm 17.0 11.8 7.4 53 4.8 SSW 24 37 13 20 1016.2 1016.0 0.0
19/10:30pm 17.8 12.6 7.2 50 5.3 SSW 24 33 13 18 1016.1 1015.9 0.0
19/10:00pm 18.7 13.9 7.2 47 5.8 SSW 22 32 12 17 1015.7 1015.5 0.0
19/09:30pm 19.5 15.1 7.3 45 6.2 SSW 20 32 11 17 1015.1 1015.0 0.0
19/09:00pm 20.2 15.8 7.2 43 6.6 SSW 20 28 11 15 1014.8 1014.7 0.0

Other formats

Comma delimited format used in spreadsheet applications
http://www.bom.gov.au/fwo/IDS60801/IDS60801.95687.axf

JavaScript Object Notation format (JSON) in row-major order
http://www.bom.gov.au/fwo/IDS60801/IDS60801.95687.json

Data quality

Most of these data are generated automatically and are frequently updated. Quality checks on data are not normally performed. It is possible for incorrect values to appear. Refer to information at About Latest Weather Observations and please check the disclaimer before using these data.